Time,TemperatureF,DewpointF,PressureIn,WindDirection,WindDirectionDegrees,WindSpeedMPH,WindSpeedGustMPH,Humidity,HourlyPrecipIn,Conditions,Clouds,dailyrainin,SoftwareType,DateUTC
2013-03-12 00:04:00,43.7,43.2,30.13,ESE,113,1.0,7.3,98,0.00,,,0.00,WUHU216HW,2013-03-12 07:04:00,
2013-03-12 00:09:00,43.8,43.3,30.13,SSE,158,5.7,6.9,98,0.00,,,0.45,WUHU216HW,2013-03-12 07:09:00,
2013-03-12 00:14:00,44.0,43.5,30.13,SSE,158,5.0,6.9,98,0.00,,,0.45,WUHU216HW,2013-03-12 07:14:00,
2013-03-12 00:20:00,44.2,43.6,30.13,SSE,158,9.5,10.0,98,0.00,,,0.00,WUHU216HW,2013-03-12 07:20:00,
2013-03-12 00:25:00,44.2,43.6,30.13,South,180,7.6,14.7,98,0.00,,,0.45,WUHU216HW,2013-03-12 07:25:00,
2013-03-12 00:30:00,44.4,43.8,30.13,SSE,158,5.9,14.7,98,0.00,,,0.00,WUHU216HW,2013-03-12 07:30:00,
2013-03-12 00:35:00,44.4,43.8,30.12,SSE,158,4.0,9.3,98,0.00,,,0.45,WUHU216HW,2013-03-12 07:35:00,
2013-03-12 00:40:00,44.6,44.0,30.12,South,180,6.9,8.2,98,0.00,,,0.00,WUHU216HW,2013-03-12 07:40:00,
2013-03-12 00:45:00,44.7,44.1,30.12,SSE,149,6.6,9.1,98,0.00,,,0.45,WUHU216HW,2013-03-12 07:45:00,
2013-03-12 00:50:00,44.7,44.1,30.11,East,94,3.4,9.1,98,0.00,,,0.45,WUHU216HW,2013-03-12 07:50:00,
2013-03-12 00:55:00,44.7,44.1,30.11,South,180,1.6,10.0,98,0.00,,,0.45,WUHU216HW,2013-03-12 07:55:00,
2013-03-12 01:00:00,44.9,44.3,30.12,SSE,158,1.4,10.0,98,0.00,,,0.45,WUHU216HW,2013-03-12 08:00:00,
2013-03-12 01:05:00,45.1,44.5,30.11,SSE,158,12.1,12.7,98,0.00,,,0.00,WUHU216HW,2013-03-12 08:05:00,
2013-03-12 01:10:00,45.3,44.7,30.11,SSE,156,10.4,12.7,98,0.00,,,0.00,WUHU216HW,2013-03-12 08:10:00,
2013-03-12 01:15:00,45.3,44.7,30.10,SSE,158,8.3,25.2,98,0.00,,,0.00,WUHU216HW,2013-03-12 08:15:00,
2013-03-12 01:20:00,45.5,44.9,30.10,SSE,150,3.5,25.2,98,0.00,,,0.00,WUHU216HW,2013-03-12 08:20:00,
2013-03-12 01:25:00,45.6,44.7,30.10,SE,141,10.8,16.7,97,0.00,,,0.00,WUHU216HW,2013-03-12 08:25:00,
2013-03-12 01:30:00,45.6,44.7,30.10,South,180,18.6,20.3,97,0.00,,,0.00,WUHU216HW,2013-03-12 08:30:00,
2013-03-12 01:35:00,45.6,44.5,30.10,SE,143,11.1,20.3,96,0.00,,,0.00,WUHU216HW,2013-03-12 08:35:00,
2013-03-12 01:40:00,45.6,44.2,30.09,SE,135,21.9,23.0,95,0.00,,,0.00,WUHU216HW,2013-03-12 08:40:00,
2013-03-12 01:45:00,45.6,44.2,30.09,SSE,158,14.0,23.0,95,0.00,,,0.00,WUHU216HW,2013-03-12 08:45:00,
2013-03-12 01:50:00,45.6,44.2,30.09,SE,135,10.4,14.7,95,0.00,,,0.00,WUHU216HW,2013-03-12 08:50:00,
2013-03-12 01:55:00,45.6,44.2,30.09,ESE,111,10.9,13.8,95,0.00,,,0.00,WUHU216HW,2013-03-12 08:55:00,
2013-03-12 02:00:00,45.8,44.4,30.09,South,180,8.0,19.0,95,0.00,,,0.00,WUHU216HW,2013-03-12 09:00:00,
2013-03-12 02:05:00,45.8,44.4,30.10,South,172,7.7,19.0,95,0.00,,,0.00,WUHU216HW,2013-03-12 09:05:00,
2013-03-12 02:10:00,45.8,44.1,30.09,East,94,7.3,18.7,94,0.00,,,0.00,WUHU216HW,2013-03-12 09:10:00,
2013-03-12 02:15:00,45.8,44.1,30.09,SSE,162,10.2,18.7,94,0.00,,,0.00,WUHU216HW,2013-03-12 09:15:00,
2013-03-12 02:20:00,45.8,44.1,30.09,South,170,11.8,13.8,94,0.00,,,0.00,WUHU216HW,2013-03-12 09:20:00,
2013-03-12 02:25:00,45.6,43.9,30.09,South,180,9.5,14.7,94,0.00,,,0.00,WUHU216HW,2013-03-12 09:25:00,
2013-03-12 02:30:00,45.6,43.9,30.10,SE,142,8.9,14.7,94,0.00,,,0.00,WUHU216HW,2013-03-12 09:30:00,
2013-03-12 02:35:00,45.6,43.9,30.10,East,97,6.1,17.0,94,0.00,,,0.00,WUHU216HW,2013-03-12 09:35:00,
2013-03-12 02:40:00,45.6,43.9,30.09,South,171,8.9,17.0,94,0.00,,,0.00,WUHU216HW,2013-03-12 09:40:00,
2013-03-12 02:45:00,45.6,43.9,30.10,SSE,149,12.6,16.7,94,0.00,,,0.00,WUHU216HW,2013-03-12 09:45:00,
2013-03-12 02:50:00,45.6,43.9,30.09,South,180,14.0,16.7,94,0.00,,,0.00,WUHU216HW,2013-03-12 09:50:00,
2013-03-12 02:55:00,45.6,44.2,30.10,SE,126,10.2,14.7,95,0.00,,,0.00,WUHU216HW,2013-03-12 09:55:00,
2013-03-12 03:00:00,45.6,43.9,30.09,SSE,158,15.3,16.1,94,0.00,,,0.00,WUHU216HW,2013-03-12 10:00:00,
2013-03-12 03:05:00,45.6,44.2,30.09,SSE,158,11.0,16.1,95,0.00,,,0.00,WUHU216HW,2013-03-12 10:05:00,
2013-03-12 03:10:00,45.8,44.4,30.09,SE,135,17.8,18.7,95,0.00,,,0.00,WUHU216HW,2013-03-12 10:10:00,
2013-03-12 03:15:00,45.8,44.4,30.08,South,170,14.2,18.7,95,0.00,,,0.00,WUHU216HW,2013-03-12 10:15:00,
2013-03-12 03:20:00,45.8,44.4,30.08,South,188,7.9,16.7,95,0.00,,,0.00,WUHU216HW,2013-03-12 10:20:00,
2013-03-12 03:25:00,45.8,44.4,30.08,South,176,12.6,16.1,95,0.00,,,0.00,WUHU216HW,2013-03-12 10:25:00,
2013-03-12 03:30:00,45.8,44.4,30.07,SSE,155,6.3,16.1,95,0.00,,,0.00,WUHU216HW,2013-03-12 10:30:00,
2013-03-12 03:35:00,45.8,44.4,30.08,SSE,158,7.6,14.9,95,0.00,,,0.00,WUHU216HW,2013-03-12 10:35:00,
2013-03-12 03:40:00,45.8,44.4,30.08,East,90,7.8,17.6,95,0.00,,,0.00,WUHU216HW,2013-03-12 10:40:00,
2013-03-12 03:45:00,45.8,44.4,30.08,SSE,148,11.0,17.6,95,0.00,,,0.00,WUHU216HW,2013-03-12 10:45:00,
2013-03-12 03:50:00,45.8,44.4,30.08,SE,135,10.4,13.6,95,0.00,,,0.00,WUHU216HW,2013-03-12 10:50:00,
2013-03-12 03:55:00,45.8,44.4,30.08,South,180,7.2,10.9,95,0.00,,,0.00,WUHU216HW,2013-03-12 10:55:00,
2013-03-12 04:00:00,45.8,44.4,30.08,SE,139,8.5,12.0,95,0.00,,,0.00,WUHU216HW,2013-03-12 11:00:00,
2013-03-12 04:05:00,45.8,44.4,30.08,SE,135,8.5,22.8,95,0.00,,,0.00,WUHU216HW,2013-03-12 11:05:00,
2013-03-12 04:10:00,46.0,44.6,30.08,SSE,150,14.0,22.8,95,0.00,,,0.00,WUHU216HW,2013-03-12 11:10:00,
2013-03-12 04:15:00,46.0,44.6,30.08,SSW,192,11.5,21.0,95,0.00,,,0.00,WUHU216HW,2013-03-12 11:15:00,
2013-03-12 04:20:00,46.0,44.6,30.07,SSE,158,18.4,21.0,95,0.00,,,0.00,WUHU216HW,2013-03-12 11:20:00,
2013-03-12 04:25:00,46.0,44.6,30.07,SE,135,10.2,23.0,95,0.00,,,0.00,WUHU216HW,2013-03-12 11:25:00,
2013-03-12 04:30:00,46.0,44.6,30.06,SE,135,19.1,23.2,95,0.00,,,0.00,WUHU216HW,2013-03-12 11:30:00,
2013-03-12 04:35:00,46.2,44.8,30.07,South,180,15.0,23.2,95,0.00,,,0.00,WUHU216HW,2013-03-12 11:35:00,
2013-03-12 04:40:00,46.2,44.8,30.07,South,180,9.7,17.6,95,0.00,,,0.00,WUHU216HW,2013-03-12 11:40:00,
2013-03-12 04:45:00,46.2,44.8,30.07,SSE,168,11.1,17.6,95,0.00,,,0.00,WUHU216HW,2013-03-12 11:45:00,
2013-03-12 04:50:00,46.2,44.8,30.07,South,180,9.1,14.9,95,0.00,,,0.00,WUHU216HW,2013-03-12 11:50:00,
2013-03-12 04:55:00,46.2,44.8,30.07,South,180,6.7,14.9,95,0.00,,,0.00,WUHU216HW,2013-03-12 11:55:00,
2013-03-12 05:00:00,46.4,45.0,30.07,SSE,157,6.8,15.8,95,0.00,,,0.00,WUHU216HW,2013-03-12 12:00:00,
2013-03-12 05:05:00,46.4,45.0,30.07,SE,135,8.1,15.8,95,0.00,,,0.00,WUHU216HW,2013-03-12 12:05:00,
2013-03-12 05:11:00,46.4,45.0,30.07,SSW,199,7.5,21.0,95,0.00,,,0.00,WUHU216HW,2013-03-12 12:11:00,
2013-03-12 05:16:00,46.5,45.1,30.07,South,191,12.8,21.6,95,0.00,,,0.00,WUHU216HW,2013-03-12 12:16:00,
2013-03-12 05:21:00,46.5,45.1,30.07,SSE,149,7.0,21.6,95,0.00,,,0.00,WUHU216HW,2013-03-12 12:21:00,
2013-03-12 05:26:00,46.5,45.1,30.07,South,171,9.6,16.1,95,0.00,,,0.00,WUHU216HW,2013-03-12 12:26:00,
2013-03-12 05:31:00,46.6,45.3,30.07,SSE,158,11.4,18.7,95,0.00,,,0.00,WUHU216HW,2013-03-12 12:31:00,
2013-03-12 05:36:00,46.8,45.4,30.06,SE,135,8.1,18.7,95,0.00,,,0.00,WUHU216HW,2013-03-12 12:36:00,
2013-03-12 05:41:00,46.8,45.4,30.06,SSE,148,6.9,16.5,95,0.00,,,0.00,WUHU216HW,2013-03-12 12:41:00,
2013-03-12 05:46:00,46.8,45.4,30.05,South,181,5.4,16.5,95,0.00,,,0.00,WUHU216HW,2013-03-12 12:46:00,
2013-03-12 05:51:00,47.0,45.6,30.05,South,180,8.8,14.5,95,0.00,,,0.00,WUHU216HW,2013-03-12 12:51:00,
2013-03-12 05:56:00,47.0,45.6,30.05,South,180,6.6,10.2,95,0.00,,,0.00,WUHU216HW,2013-03-12 12:56:00,
2013-03-12 06:01:00,47.0,45.6,30.06,South,180,10.0,10.5,95,0.00,,,0.00,WUHU216HW,2013-03-12 13:01:00,
2013-03-12 06:06:00,47.0,45.6,30.06,SE,140,11.9,19.0,95,0.00,,,0.00,WUHU216HW,2013-03-12 13:06:00,
2013-03-12 06:11:00,47.0,45.6,30.06,SSE,158,13.6,19.0,95,0.00,,,0.00,WUHU216HW,2013-03-12 13:11:00,
2013-03-12 06:16:00,47.0,45.6,30.05,SSE,166,10.1,17.0,95,0.00,,,0.00,WUHU216HW,2013-03-12 13:16:00,
2013-03-12 06:21:00,47.0,45.6,30.06,SSE,158,8.3,17.0,95,0.00,,,0.00,WUHU216HW,2013-03-12 13:21:00,
2013-03-12 06:26:00,47.0,45.6,30.05,SSE,160,4.5,8.7,95,0.00,,,0.00,WUHU216HW,2013-03-12 13:26:00,
2013-03-12 06:31:00,47.0,45.6,30.05,South,169,12.1,19.0,95,0.00,,,0.00,WUHU216HW,2013-03-12 13:31:00,
2013-03-12 06:36:00,47.2,45.6,30.05,ESE,122,6.8,19.0,94,0.00,,,0.00,WUHU216HW,2013-03-12 13:36:00,
2013-03-12 06:41:00,47.2,45.6,30.05,SSE,158,19.3,20.3,94,0.00,,,0.00,WUHU216HW,2013-03-12 13:41:00,
2013-03-12 06:46:00,47.2,45.6,30.04,South,180,11.4,20.3,94,0.00,,,0.00,WUHU216HW,2013-03-12 13:46:00,
2013-03-12 06:51:00,47.2,45.6,30.05,South,180,7.6,18.7,94,0.00,,,0.00,WUHU216HW,2013-03-12 13:51:00,
2013-03-12 06:56:00,47.2,45.6,30.05,South,178,4.8,16.5,94,0.00,,,0.00,WUHU216HW,2013-03-12 13:56:00,
2013-03-12 07:01:00,47.2,45.6,30.05,South,180,11.4,16.5,94,0.00,,,0.00,WUHU216HW,2013-03-12 14:01:00,
2013-03-12 07:06:00,47.2,45.6,30.05,South,180,14.0,17.2,94,0.00,,,0.00,WUHU216HW,2013-03-12 14:06:00,
2013-03-12 07:11:00,47.0,45.4,30.05,ENE,68,6.6,17.2,94,0.00,,,0.00,WUHU216HW,2013-03-12 14:11:00,
2013-03-12 07:16:00,47.0,45.4,30.03,SSE,158,12.1,15.8,94,0.00,,,0.00,WUHU216HW,2013-03-12 14:16:00,
2013-03-12 07:21:00,47.0,45.4,30.04,South,180,16.3,17.2,94,0.00,,,0.00,WUHU216HW,2013-03-12 14:21:00,
2013-03-12 07:26:00,47.0,45.4,30.03,South,180,6.1,17.2,94,0.00,,,0.00,WUHU216HW,2013-03-12 14:26:00,
2013-03-12 07:31:00,47.0,45.6,30.04,SSE,164,6.2,13.1,95,0.00,,,0.00,WUHU216HW,2013-03-12 14:31:00,
2013-03-12 07:36:00,47.0,45.6,30.04,SE,145,7.8,13.1,95,0.00,,,0.00,WUHU216HW,2013-03-12 14:36:00,
2013-03-12 07:41:00,47.0,45.6,30.05,SE,135,8.3,11.4,95,0.00,,,0.00,WUHU216HW,2013-03-12 14:41:00,
2013-03-12 07:46:00,47.0,45.6,30.05,South,169,7.5,15.4,95,0.00,,,0.00,WUHU216HW,2013-03-12 14:46:00,
2013-03-12 07:51:00,47.0,45.6,30.05,South,179,3.8,15.4,95,0.00,,,0.00,WUHU216HW,2013-03-12 14:51:00,
2013-03-12 07:56:00,47.0,45.6,30.04,SSE,158,8.3,12.9,95,0.00,,,0.00,WUHU216HW,2013-03-12 14:56:00,
2013-03-12 08:02:00,47.0,45.6,30.04,South,180,11.7,12.9,95,0.00,,,0.00,WUHU216HW,2013-03-12 15:02:00,
2013-03-12 08:07:00,47.0,45.6,30.05,ESE,113,8.8,15.2,95,0.00,,,0.00,WUHU216HW,2013-03-12 15:07:00,
2013-03-12 08:12:00,47.0,45.6,30.05,SSE,162,19.7,26.6,95,0.00,,,0.00,WUHU216HW,2013-03-12 15:12:00,
2013-03-12 08:17:00,47.0,45.4,30.05,SW,225,16.3,26.6,94,0.00,,,0.00,WUHU216HW,2013-03-12 15:17:00,
2013-03-12 08:22:00,47.0,45.4,30.05,SSE,147,10.4,17.6,94,0.00,,,0.00,WUHU216HW,2013-03-12 15:22:00,
2013-03-12 08:27:00,47.2,45.6,30.05,SSE,158,14.2,17.6,94,0.00,,,0.00,WUHU216HW,2013-03-12 15:27:00,
2013-03-12 08:32:00,47.2,45.6,30.06,SSE,158,8.0,14.9,94,0.00,,,0.00,WUHU216HW,2013-03-12 15:32:00,
2013-03-12 08:37:00,47.2,45.6,30.06,SSW,194,9.7,12.9,94,0.00,,,0.00,WUHU216HW,2013-03-12 15:37:00,
2013-03-12 08:42:00,47.2,45.6,30.06,SE,139,9.1,16.1,94,0.00,,,0.00,WUHU216HW,2013-03-12 15:42:00,
2013-03-12 08:47:00,47.3,45.7,30.06,South,180,14.0,16.1,94,0.00,,,0.00,WUHU216HW,2013-03-12 15:47:00,
2013-03-12 08:52:00,47.3,45.7,30.06,South,171,9.1,14.7,94,0.00,,,0.00,WUHU216HW,2013-03-12 15:52:00,
2013-03-12 08:57:00,47.3,45.7,30.06,South,184,7.8,13.8,94,0.00,,,0.00,WUHU216HW,2013-03-12 15:57:00,
2013-03-12 09:02:00,47.3,45.7,30.06,SSE,158,12.7,13.4,94,0.00,,,0.00,WUHU216HW,2013-03-12 16:02:00,
2013-03-12 09:07:00,47.5,45.8,30.06,SE,135,9.3,14.7,94,0.00,,,0.00,WUHU216HW,2013-03-12 16:07:00,
2013-03-12 09:12:00,47.5,45.8,30.06,SE,135,4.2,9.8,94,0.00,,,0.00,WUHU216HW,2013-03-12 16:12:00,
2013-03-12 09:17:00,47.7,45.8,30.06,SSE,148,13.3,16.1,93,0.00,,,0.00,WUHU216HW,2013-03-12 16:17:00,
2013-03-12 09:22:00,47.7,45.8,30.06,South,180,7.9,16.1,93,0.00,,,0.00,WUHU216HW,2013-03-12 16:22:00,
2013-03-12 09:27:00,47.9,46.0,30.06,South,180,16.5,17.4,93,0.00,,,0.00,WUHU216HW,2013-03-12 16:27:00,
2013-03-12 09:32:00,48.1,45.9,30.05,South,191,8.1,17.4,92,0.00,,,0.00,WUHU216HW,2013-03-12 16:32:00,
2013-03-12 09:37:00,48.1,45.9,30.06,South,180,12.4,24.3,92,0.00,,,0.00,WUHU216HW,2013-03-12 16:37:00,
2013-03-12 09:42:00,48.1,45.9,30.06,South,180,12.9,24.3,92,0.00,,,0.00,WUHU216HW,2013-03-12 16:42:00,
2013-03-12 09:47:00,48.2,45.9,30.06,South,180,10.5,17.8,92,0.00,,,0.00,WUHU216HW,2013-03-12 16:47:00,
2013-03-12 09:52:00,48.1,45.8,30.05,SW,225,6.6,17.8,92,0.00,,,0.00,WUHU216HW,2013-03-12 16:52:00,
2013-03-12 09:57:00,48.1,45.9,30.05,South,188,7.0,15.6,92,0.00,,,0.00,WUHU216HW,2013-03-12 16:57:00,
2013-03-12 10:02:00,48.1,45.9,30.05,SE,135,2.8,12.9,92,0.00,,,0.00,WUHU216HW,2013-03-12 17:02:00,
2013-03-12 10:07:00,48.5,46.2,30.06,South,171,11.1,14.5,92,0.00,,,0.00,WUHU216HW,2013-03-12 17:07:00,
2013-03-12 10:12:00,48.5,46.2,30.05,South,180,7.4,14.5,92,0.00,,,0.00,WUHU216HW,2013-03-12 17:12:00,
2013-03-12 10:17:00,48.6,46.4,30.05,SSE,158,5.9,19.2,92,0.00,,,0.00,WUHU216HW,2013-03-12 17:17:00,
2013-03-12 10:23:00,48.9,46.3,30.06,SSE,158,13.6,19.2,91,0.00,,,0.00,WUHU216HW,2013-03-12 17:23:00,
2013-03-12 10:28:00,48.9,46.3,30.06,SSW,203,7.4,15.8,91,0.00,,,0.00,WUHU216HW,2013-03-12 17:28:00,
2013-03-12 10:33:00,49.0,46.2,30.06,South,184,11.5,14.3,90,0.00,,,0.00,WUHU216HW,2013-03-12 17:33:00,
2013-03-12 10:38:00,49.2,46.4,30.06,ENE,68,5.4,14.3,90,0.00,,,0.00,WUHU216HW,2013-03-12 17:38:00,
2013-03-12 10:43:00,49.2,46.3,30.06,South,191,11.3,19.2,90,0.00,,,0.00,WUHU216HW,2013-03-12 17:43:00,
2013-03-12 10:48:00,49.2,46.6,30.06,SSE,161,15.1,28.8,91,0.00,,,0.00,WUHU216HW,2013-03-12 17:48:00,
2013-03-12 10:53:00,48.9,46.4,30.06,SSE,149,10.4,28.8,91,0.00,,,0.00,WUHU216HW,2013-03-12 17:53:00,
2013-03-12 10:58:00,49.1,46.8,30.06,SSE,158,9.3,13.6,92,0.00,,,0.00,WUHU216HW,2013-03-12 17:58:00,
2013-03-12 11:03:00,49.1,46.8,30.06,SSW,203,16.3,17.2,92,0.00,,,0.00,WUHU216HW,2013-03-12 18:03:00,
2013-03-12 11:08:00,49.1,46.8,30.06,South,180,13.6,17.2,92,0.00,,,0.00,WUHU216HW,2013-03-12 18:08:00,
2013-03-12 11:13:00,49.0,46.8,30.06,SSW,203,18.2,19.2,92,0.00,,,0.00,WUHU216HW,2013-03-12 18:13:00,
2013-03-12 11:18:00,48.8,46.6,30.07,SSE,166,18.2,24.3,92,0.00,,,0.00,WUHU216HW,2013-03-12 18:18:00,
2013-03-12 11:23:00,48.8,46.8,30.07,SSW,203,9.1,24.6,93,0.00,,,0.00,WUHU216HW,2013-03-12 18:23:00,
2013-03-12 11:28:00,49.0,47.0,30.07,SSE,158,9.3,24.6,93,0.00,,,0.00,WUHU216HW,2013-03-12 18:28:00,
2013-03-12 11:33:00,48.9,47.0,30.07,SE,135,6.6,16.3,93,0.00,,,0.00,WUHU216HW,2013-03-12 18:33:00,
2013-03-12 11:38:00,48.9,46.9,30.07,SSE,148,10.4,13.6,93,0.00,,,0.00,WUHU216HW,2013-03-12 18:38:00,
2013-03-12 11:43:00,48.7,46.7,30.07,SSE,158,10.4,13.6,93,0.00,,,0.00,WUHU216HW,2013-03-12 18:43:00,
2013-03-12 11:48:00,49.1,47.1,30.07,South,187,10.9,14.7,93,0.00,,,0.00,WUHU216HW,2013-03-12 18:48:00,
2013-03-12 11:53:00,49.1,47.1,30.07,SSE,162,6.3,17.0,93,0.00,,,0.00,WUHU216HW,2013-03-12 18:53:00,
2013-03-12 11:58:00,49.3,47.4,30.07,South,169,7.9,17.0,93,0.00,,,0.00,WUHU216HW,2013-03-12 18:58:00,
2013-03-12 12:03:00,49.9,47.9,30.07,SW,225,7.8,8.5,93,0.00,,,0.00,WUHU216HW,2013-03-12 19:03:00,
2013-03-12 12:08:00,49.9,47.6,30.07,South,180,17.2,18.1,92,0.00,,,0.00,WUHU216HW,2013-03-12 19:08:00,
2013-03-12 12:13:00,49.7,47.4,30.07,SE,145,6.7,18.1,92,0.00,,,0.00,WUHU216HW,2013-03-12 19:13:00,
2013-03-12 12:18:00,49.6,47.1,30.07,SSE,158,9.5,10.0,91,0.00,,,0.00,WUHU216HW,2013-03-12 19:18:00,
2013-03-12 12:23:00,49.6,47.4,30.08,SSE,158,5.1,12.0,92,0.00,,,0.00,WUHU216HW,2013-03-12 19:23:00,
2013-03-12 12:28:00,49.6,47.3,30.08,South,180,16.3,17.2,92,0.00,,,0.00,WUHU216HW,2013-03-12 19:28:00,
2013-03-12 12:33:00,49.2,46.9,30.08,SSW,212,9.2,17.2,92,0.00,,,0.00,WUHU216HW,2013-03-12 19:33:00,
2013-03-12 12:38:00,49.4,47.1,30.08,SE,138,5.2,10.9,92,0.00,,,0.00,WUHU216HW,2013-03-12 19:38:00,
2013-03-12 12:43:00,49.6,47.3,30.08,SE,144,4.4,10.5,92,0.00,,,0.00,WUHU216HW,2013-03-12 19:43:00,
2013-03-12 12:48:00,49.4,47.1,30.08,SE,135,7.8,13.1,92,0.00,,,0.00,WUHU216HW,2013-03-12 19:48:00,
2013-03-12 12:53:00,49.5,47.3,30.08,SE,143,4.4,13.1,92,0.00,,,0.00,WUHU216HW,2013-03-12 19:53:00,
2013-03-12 12:58:00,49.5,47.0,30.07,South,180,5.0,13.1,91,0.00,,,0.00,WUHU216HW,2013-03-12 19:58:00,
2013-03-12 13:03:00,49.3,46.8,30.07,South,180,11.0,14.0,91,0.00,,,0.00,WUHU216HW,2013-03-12 20:03:00,
2013-03-12 13:08:00,49.5,47.2,30.08,SSE,158,14.6,15.4,92,0.00,,,0.00,WUHU216HW,2013-03-12 20:08:00,
2013-03-12 13:13:00,49.3,46.7,30.07,ESE,113,2.1,15.4,91,0.00,,,0.00,WUHU216HW,2013-03-12 20:13:00,
2013-03-12 13:18:00,49.3,46.7,30.08,SW,225,8.8,19.4,91,0.00,,,0.00,WUHU216HW,2013-03-12 20:18:00,
2013-03-12 13:23:00,49.1,46.8,30.08,ESE,113,8.8,19.4,92,0.00,,,0.00,WUHU216HW,2013-03-12 20:23:00,
2013-03-12 13:29:00,49.1,46.8,30.08,SSE,156,6.5,9.3,92,0.00,,,0.00,WUHU216HW,2013-03-12 20:29:00,
2013-03-12 13:34:00,48.9,46.7,30.08,SSE,168,7.9,10.7,92,0.00,,,0.00,WUHU216HW,2013-03-12 20:34:00,
2013-03-12 13:39:00,48.9,47.0,30.08,South,180,9.3,10.7,93,0.00,,,0.00,WUHU216HW,2013-03-12 20:39:00,
2013-03-12 13:44:00,48.9,47.0,30.08,South,180,11.0,11.6,93,0.00,,,0.00,WUHU216HW,2013-03-12 20:44:00,
2013-03-12 13:49:00,48.7,46.7,30.08,SSE,149,6.6,12.5,93,0.00,,,0.00,WUHU216HW,2013-03-12 20:49:00,
2013-03-12 13:54:00,48.5,46.8,30.08,SW,225,12.9,13.6,94,0.00,,,0.00,WUHU216HW,2013-03-12 20:54:00,
2013-03-12 13:59:00,48.3,46.6,30.08,SSE,168,8.8,13.6,94,0.00,,,0.00,WUHU216HW,2013-03-12 20:59:00,
2013-03-12 14:04:00,48.5,47.1,30.08,ESE,113,0.0,12.5,95,0.00,,,0.00,WUHU216HW,2013-03-12 21:04:00,
2013-03-12 14:09:00,48.7,47.3,30.08,SSE,158,5.0,8.9,95,0.00,,,0.00,WUHU216HW,2013-03-12 21:09:00,
2013-03-12 14:14:00,48.5,47.1,30.08,SSW,203,8.6,9.1,95,0.00,,,0.00,WUHU216HW,2013-03-12 21:14:00,
2013-03-12 14:19:00,48.3,46.9,30.07,SSE,162,7.3,11.4,95,0.00,,,0.00,WUHU216HW,2013-03-12 21:19:00,
2013-03-12 14:24:00,49.0,47.9,30.07,SSE,168,6.1,12.0,96,0.00,,,0.00,WUHU216HW,2013-03-12 21:24:00,
2013-03-12 14:29:00,49.6,48.4,30.07,SSW,193,7.5,17.2,96,0.00,,,0.00,WUHU216HW,2013-03-12 21:29:00,
2013-03-12 14:34:00,49.6,48.2,30.07,SSE,158,8.1,17.2,95,0.00,,,0.00,WUHU216HW,2013-03-12 21:34:00,
2013-03-12 14:39:00,49.6,48.2,30.07,SSE,158,7.8,13.6,95,0.00,,,0.00,WUHU216HW,2013-03-12 21:39:00,
2013-03-12 14:44:00,49.4,47.7,30.06,SSW,203,6.1,11.6,94,0.00,,,0.00,WUHU216HW,2013-03-12 21:44:00,
2013-03-12 14:49:00,49.6,47.9,30.07,SE,135,5.2,11.6,94,0.00,,,0.00,WUHU216HW,2013-03-12 21:49:00,
2013-03-12 14:54:00,49.6,47.6,30.06,SE,141,7.8,11.8,93,0.00,,,0.00,WUHU216HW,2013-03-12 21:54:00,
2013-03-12 14:59:00,49.6,47.6,30.05,SSE,158,7.3,11.8,93,0.00,,,0.00,WUHU216HW,2013-03-12 21:59:00,
2013-03-12 15:04:00,49.9,47.9,30.05,South,180,6.6,11.8,93,0.00,,,0.00,WUHU216HW,2013-03-12 22:04:00,
2013-03-12 15:09:00,49.9,47.6,30.05,SE,135,6.1,14.0,92,0.00,,,0.00,WUHU216HW,2013-03-12 22:09:00,
2013-03-12 15:14:00,50.1,47.5,30.05,ESE,108,3.7,14.0,91,0.00,,,0.00,WUHU216HW,2013-03-12 22:14:00,
2013-03-12 15:19:00,50.5,47.9,30.05,SSW,203,1.4,10.5,91,0.00,,,0.00,WUHU216HW,2013-03-12 22:19:00,
2013-03-12 15:24:00,50.5,47.3,30.05,SSE,152,7.1,13.8,89,0.00,,,0.00,WUHU216HW,2013-03-12 22:24:00,
2013-03-12 15:29:00,50.5,47.3,30.05,SSE,147,6.7,14.7,89,0.00,,,0.00,WUHU216HW,2013-03-12 22:29:00,
2013-03-12 15:34:00,50.7,47.2,30.05,SSE,158,5.5,14.7,88,0.00,,,0.00,WUHU216HW,2013-03-12 22:34:00,
2013-03-12 15:39:00,50.8,47.0,30.05,SSE,158,11.2,12.5,87,0.00,,,0.00,WUHU216HW,2013-03-12 22:39:00,
2013-03-12 15:44:00,50.8,47.0,30.05,SE,135,6.9,14.5,87,0.00,,,0.00,WUHU216HW,2013-03-12 22:44:00,
2013-03-12 15:49:00,51.2,47.1,30.05,SSE,165,5.8,14.5,86,0.00,,,0.00,WUHU216HW,2013-03-12 22:49:00,
2013-03-12 15:54:00,51.2,47.1,30.05,South,180,12.1,12.7,86,0.00,,,0.00,WUHU216HW,2013-03-12 22:54:00,
2013-03-12 15:59:00,51.2,46.9,30.06,South,180,14.1,19.2,85,0.00,,,0.00,WUHU216HW,2013-03-12 22:59:00,
2013-03-12 16:04:00,50.8,46.8,30.05,South,180,13.8,19.2,86,0.00,,,0.00,WUHU216HW,2013-03-12 23:04:00,
2013-03-12 16:09:00,50.7,46.7,30.05,SSE,153,4.7,14.5,86,0.00,,,0.00,WUHU216HW,2013-03-12 23:09:00,
2013-03-12 16:14:00,50.8,46.7,30.05,South,180,9.1,9.6,86,0.00,,,0.00,WUHU216HW,2013-03-12 23:14:00,
2013-03-12 16:19:00,50.6,46.5,30.05,SE,135,15.0,15.8,86,0.00,,,0.00,WUHU216HW,2013-03-12 23:19:00,
2013-03-12 16:24:00,50.6,46.5,30.05,SSE,164,8.4,17.4,86,0.00,,,0.00,WUHU216HW,2013-03-12 23:24:00,
2013-03-12 16:29:00,50.6,46.6,30.05,SSE,160,10.7,19.2,86,0.00,,,0.00,WUHU216HW,2013-03-12 23:29:00,
2013-03-12 16:34:00,50.8,46.8,30.05,SSE,158,10.5,19.9,86,0.00,,,0.00,WUHU216HW,2013-03-12 23:34:00,
2013-03-12 16:39:00,50.8,46.8,30.05,South,180,13.8,19.9,86,0.00,,,0.00,WUHU216HW,2013-03-12 23:39:00,
2013-03-12 16:45:00,50.6,46.3,30.05,South,180,17.4,18.3,85,0.00,,,0.00,WUHU216HW,2013-03-12 23:45:00,
2013-03-12 16:50:00,50.7,46.3,30.05,South,170,13.4,18.3,85,0.00,,,0.00,WUHU216HW,2013-03-12 23:50:00,
2013-03-12 16:55:00,50.5,46.4,30.05,SE,142,13.2,19.6,86,0.00,,,0.00,WUHU216HW,2013-03-12 23:55:00,
2013-03-12 17:00:00,50.3,46.3,30.05,SE,144,9.9,19.6,86,0.00,,,0.00,WUHU216HW,2013-03-13 00:00:00,
2013-03-12 17:05:00,50.1,46.1,30.05,SSE,147,8.1,15.4,86,0.00,,,0.00,WUHU216HW,2013-03-13 00:05:00,
2013-03-12 17:10:00,50.0,46.0,30.05,SSE,164,15.0,20.1,86,0.00,,,0.00,WUHU216HW,2013-03-13 00:10:00,
2013-03-12 17:15:00,49.9,45.8,30.05,ENE,68,8.5,21.4,86,0.00,,,0.00,WUHU216HW,2013-03-13 00:15:00,
2013-03-12 17:20:00,49.9,46.1,30.05,SSW,203,18.9,21.4,87,0.00,,,0.00,WUHU216HW,2013-03-13 00:20:00,
2013-03-12 17:25:00,49.7,46.0,30.05,SSE,158,15.0,19.9,87,0.00,,,0.00,WUHU216HW,2013-03-13 00:25:00,
2013-03-12 17:30:00,49.5,45.8,30.05,South,180,18.0,19.0,87,0.00,,,0.00,WUHU216HW,2013-03-13 00:30:00,
2013-03-12 17:35:00,49.7,46.0,30.04,South,174,15.3,23.4,87,0.00,,,0.00,WUHU216HW,2013-03-13 00:35:00,
2013-03-12 17:40:00,49.8,46.0,30.04,South,180,27.5,29.0,87,0.00,,,0.00,WUHU216HW,2013-03-13 00:40:00,
2013-03-12 17:45:00,49.8,46.1,30.04,SSW,194,17.8,29.0,87,0.00,,,0.00,WUHU216HW,2013-03-13 00:45:00,
2013-03-12 17:50:00,49.6,45.9,30.04,SSE,158,16.1,23.7,87,0.00,,,0.00,WUHU216HW,2013-03-13 00:50:00,
2013-03-12 17:55:00,49.4,45.4,30.04,South,180,15.9,27.2,86,0.00,,,0.00,WUHU216HW,2013-03-13 00:55:00,
2013-03-12 18:00:00,49.5,45.4,30.04,SSE,158,12.5,27.2,86,0.00,,,0.00,WUHU216HW,2013-03-13 01:00:00,
2013-03-12 18:05:00,49.5,45.5,30.04,SSE,164,11.7,25.0,86,0.00,,,0.00,WUHU216HW,2013-03-13 01:05:00,
2013-03-12 18:10:00,49.4,45.7,30.04,SSE,158,16.9,17.8,87,0.00,,,0.00,WUHU216HW,2013-03-13 01:10:00,
2013-03-12 18:15:00,49.4,45.4,30.04,South,176,16.2,18.3,86,0.00,,,0.00,WUHU216HW,2013-03-13 01:15:00,
2013-03-12 18:20:00,49.5,45.4,30.04,SE,135,11.7,18.3,86,0.00,,,0.00,WUHU216HW,2013-03-13 01:20:00,
2013-03-12 18:25:00,49.3,45.3,30.04,SSE,158,16.4,19.9,86,0.00,,,0.00,WUHU216HW,2013-03-13 01:25:00,
2013-03-12 18:30:00,49.3,45.3,30.04,SSE,158,5.2,19.9,86,0.00,,,0.00,WUHU216HW,2013-03-13 01:30:00,
2013-03-12 18:35:00,49.3,45.3,30.04,SE,136,8.1,17.2,86,0.00,,,0.00,WUHU216HW,2013-03-13 01:35:00,
2013-03-12 18:40:00,49.4,45.6,30.04,SE,131,14.9,20.8,87,0.00,,,0.00,WUHU216HW,2013-03-13 01:40:00,
2013-03-12 18:45:00,49.2,45.5,30.04,SE,135,10.1,23.9,87,0.00,,,0.00,WUHU216HW,2013-03-13 01:45:00,
2013-03-12 18:50:00,49.2,45.5,30.04,SE,135,12.1,23.9,87,0.00,,,0.00,WUHU216HW,2013-03-13 01:50:00,
2013-03-12 18:55:00,49.0,45.6,30.04,SE,141,13.4,20.3,88,0.00,,,0.00,WUHU216HW,2013-03-13 01:55:00,
2013-03-12 19:00:00,49.1,45.6,30.04,South,180,19.8,20.8,88,0.00,,,0.00,WUHU216HW,2013-03-13 02:00:00,
2013-03-12 19:05:00,48.9,45.5,30.04,SE,135,14.2,20.8,88,0.00,,,0.00,WUHU216HW,2013-03-13 02:05:00,
2013-03-12 19:10:00,48.9,45.5,30.04,SSW,203,28.9,30.4,88,0.00,,,0.00,WUHU216HW,2013-03-13 02:10:00,
2013-03-12 19:15:00,48.9,45.5,30.05,South,180,14.2,30.4,88,0.00,,,0.00,WUHU216HW,2013-03-13 02:15:00,
2013-03-12 19:20:00,49.0,45.8,30.05,SE,135,7.6,22.3,89,0.00,,,0.00,WUHU216HW,2013-03-13 02:20:00,
2013-03-12 19:25:00,48.9,45.5,30.05,SSE,168,17.9,20.5,88,0.00,,,0.00,WUHU216HW,2013-03-13 02:25:00,
2013-03-12 19:30:00,48.7,45.3,30.05,SSE,158,14.4,20.8,88,0.00,,,0.00,WUHU216HW,2013-03-13 02:30:00,
2013-03-12 19:35:00,49.1,45.6,30.05,South,180,17.4,18.3,88,0.00,,,0.00,WUHU216HW,2013-03-13 02:35:00,
2013-03-12 19:40:00,49.1,45.7,30.04,South,180,12.4,18.3,88,0.00,,,0.00,WUHU216HW,2013-03-13 02:40:00,
2013-03-12 19:45:00,49.1,45.7,30.05,South,180,17.1,22.5,88,0.00,,,0.00,WUHU216HW,2013-03-13 02:45:00,
2013-03-12 19:50:00,49.1,45.7,30.05,SSE,148,9.8,27.5,88,0.00,,,0.00,WUHU216HW,2013-03-13 02:50:00,
2013-03-12 19:55:00,49.1,45.7,30.05,SE,144,9.9,27.5,88,0.00,,,0.00,WUHU216HW,2013-03-13 02:55:00,
2013-03-12 19:59:00,48.2,45.7,30.06,SE,128,7.7,15.4,91,0.00,,,0.00,WUHU216HW,2013-03-13 02:59:00,
2013-03-12 20:00:00,49.1,45.7,30.05,ESE,113,12.7,25.9,88,0.00,,,0.00,WUHU216HW,2013-03-13 03:00:00,
2013-03-12 20:01:00,48.2,45.7,30.07,South,180,25.3,26.6,91,0.00,,,0.00,WUHU216HW,2013-03-13 03:01:00,
2013-03-12 20:02:00,48.2,45.7,30.06,South,191,16.9,26.6,91,0.00,,,0.00,WUHU216HW,2013-03-13 03:02:00,
2013-03-12 20:03:00,48.2,45.7,30.07,SW,234,7.1,26.6,91,0.00,,,0.00,WUHU216HW,2013-03-13 03:03:00,
2013-03-12 20:04:00,48.1,45.9,30.07,SSE,158,8.6,26.6,92,0.00,,,0.00,WUHU216HW,2013-03-13 03:04:00,
2013-03-12 20:05:00,49.1,45.7,30.05,South,175,10.9,25.9,88,0.00,,,0.00,WUHU216HW,2013-03-13 03:05:00,
2013-03-12 20:06:00,48.1,45.9,30.06,SE,135,6.6,26.6,92,0.00,,,0.00,WUHU216HW,2013-03-13 03:06:00,
2013-03-12 20:10:00,49.1,45.7,30.05,South,191,10.2,30.6,88,0.00,,,0.00,WUHU216HW,2013-03-13 03:10:00,
2013-03-12 20:15:00,49.1,45.7,30.05,South,180,10.4,30.6,88,0.00,,,0.00,WUHU216HW,2013-03-13 03:15:00,
2013-03-12 20:20:00,49.1,45.7,30.05,SSE,158,21.2,25.2,88,0.00,,,0.00,WUHU216HW,2013-03-13 03:20:00,
2013-03-12 20:25:00,49.0,45.6,30.06,SSW,199,9.5,22.3,88,0.00,,,0.00,WUHU216HW,2013-03-13 03:25:00,
2013-03-12 20:30:00,48.8,45.7,30.05,SSE,167,11.4,20.3,89,0.00,,,0.00,WUHU216HW,2013-03-13 03:30:00,
2013-03-12 20:35:00,48.6,45.8,30.05,South,180,13.1,24.1,90,0.00,,,0.00,WUHU216HW,2013-03-13 03:35:00,
2013-03-12 20:40:00,48.6,45.8,30.06,South,180,7.4,24.1,90,0.00,,,0.00,WUHU216HW,2013-03-13 03:40:00,
2013-03-12 20:45:00,48.2,45.7,30.06,SSW,203,14.4,20.8,91,0.00,,,0.00,WUHU216HW,2013-03-13 03:45:00,
2013-03-12 20:50:00,48.4,45.9,30.07,South,180,14.6,20.8,91,0.00,,,0.00,WUHU216HW,2013-03-13 03:50:00,
2013-03-12 20:55:00,48.2,45.7,30.07,SE,135,4.8,15.4,91,0.00,,,0.00,WUHU216HW,2013-03-13 03:55:00,
2013-03-12 21:03:00,48.2,45.7,30.07,SW,234,7.1,26.6,91,0.00,,,0.00,WUHU216HW,2013-03-13 04:03:00,
2013-03-12 21:08:00,48.1,45.9,30.06,SSW,203,8.6,26.6,92,0.00,,,0.00,WUHU216HW,2013-03-13 04:08:00,
2013-03-12 21:13:00,48.1,45.9,30.06,SSE,158,13.8,14.5,92,0.00,,,0.00,WUHU216HW,2013-03-13 04:13:00,
2013-03-12 21:18:00,48.1,45.9,30.07,SSE,158,12.0,14.5,92,0.00,,,0.00,WUHU216HW,2013-03-13 04:18:00,
2013-03-12 21:23:00,48.1,45.9,30.06,South,170,15.6,18.5,92,0.00,,,0.00,WUHU216HW,2013-03-13 04:23:00,
2013-03-12 21:28:00,47.9,45.7,30.06,South,173,9.1,23.0,92,0.00,,,0.00,WUHU216HW,2013-03-13 04:28:00,
2013-03-12 21:33:00,47.9,45.7,30.06,South,180,9.5,23.0,92,0.00,,,0.00,WUHU216HW,2013-03-13 04:33:00,
2013-03-12 21:38:00,47.7,45.8,30.07,SSW,203,15.5,19.4,93,0.00,,,0.00,WUHU216HW,2013-03-13 04:38:00,
2013-03-12 21:43:00,47.7,45.8,30.08,SSW,199,6.0,18.7,93,0.00,,,0.00,WUHU216HW,2013-03-13 04:43:00,
2013-03-12 21:48:00,47.5,45.6,30.07,SSE,158,9.7,18.7,93,0.00,,,0.00,WUHU216HW,2013-03-13 04:48:00,
2013-03-12 21:53:00,47.5,45.6,30.08,SSE,158,10.9,11.6,93,0.00,,,0.00,WUHU216HW,2013-03-13 04:53:00,
2013-03-12 21:58:00,47.5,45.8,30.08,SSW,203,5.7,11.6,94,0.00,,,0.00,WUHU216HW,2013-03-13 04:58:00,
2013-03-12 22:03:00,47.3,45.7,30.08,South,180,15.5,16.3,94,0.00,,,0.00,WUHU216HW,2013-03-13 05:03:00,
2013-03-12 22:08:00,47.3,45.7,30.08,SSW,193,7.3,16.3,94,0.00,,,0.00,WUHU216HW,2013-03-13 05:08:00,
2013-03-12 22:13:00,47.3,45.7,30.07,SSE,158,8.0,11.1,94,0.00,,,0.00,WUHU216HW,2013-03-13 05:13:00,
2013-03-12 22:18:00,47.3,45.7,30.08,SE,135,9.3,12.0,94,0.00,,,0.00,WUHU216HW,2013-03-13 05:18:00,
2013-03-12 22:23:00,47.3,45.7,30.08,SE,135,18.0,19.0,94,0.00,,,0.00,WUHU216HW,2013-03-13 05:23:00,
2013-03-12 22:28:00,47.3,45.7,30.08,SE,135,6.1,19.0,94,0.00,,,0.00,WUHU216HW,2013-03-13 05:28:00,
2013-03-12 22:33:00,47.3,45.7,30.08,South,173,16.1,23.0,94,0.00,,,0.00,WUHU216HW,2013-03-13 05:33:00,
2013-03-12 22:38:00,47.3,45.7,30.08,South,178,9.0,23.0,94,0.00,,,0.00,WUHU216HW,2013-03-13 05:38:00,
2013-03-12 22:43:00,47.3,45.7,30.08,East,99,5.5,18.3,94,0.00,,,0.00,WUHU216HW,2013-03-13 05:43:00,
2013-03-12 22:48:00,47.2,45.6,30.08,SE,135,7.4,10.0,94,0.00,,,0.00,WUHU216HW,2013-03-13 05:48:00,
2013-03-12 22:53:00,47.2,45.6,30.08,SW,225,15.7,16.5,94,0.00,,,0.00,WUHU216HW,2013-03-13 05:53:00,
2013-03-12 22:58:00,47.2,45.6,30.08,SSE,158,10.6,20.3,94,0.00,,,0.00,WUHU216HW,2013-03-13 05:58:00,
2013-03-12 23:03:00,47.0,45.4,30.08,SE,135,14.8,20.3,94,0.00,,,0.00,WUHU216HW,2013-03-13 06:03:00,
2013-03-12 23:08:00,47.0,45.4,30.08,SE,135,4.8,15.6,94,0.00,,,0.00,WUHU216HW,2013-03-13 06:08:00,
2013-03-12 23:14:00,47.0,45.6,30.08,SSE,158,6.7,10.0,95,0.00,,,0.00,WUHU216HW,2013-03-13 06:14:00,
2013-03-12 23:19:00,47.0,45.6,30.08,SE,135,6.7,10.5,95,0.00,,,0.00,WUHU216HW,2013-03-13 06:19:00,
2013-03-12 23:24:00,47.0,45.6,30.08,SSE,158,6.8,10.5,95,0.00,,,0.00,WUHU216HW,2013-03-13 06:24:00,
2013-03-12 23:29:00,47.0,45.6,30.08,South,184,7.5,9.8,95,0.00,,,0.00,WUHU216HW,2013-03-13 06:29:00,
2013-03-12 23:34:00,47.0,45.6,30.08,SSE,154,3.5,10.9,95,0.00,,,0.00,WUHU216HW,2013-03-13 06:34:00,
2013-03-12 23:39:00,46.8,45.4,30.08,East,90,0.0,12.3,95,0.00,,,0.00,WUHU216HW,2013-03-13 06:39:00,
2013-03-12 23:44:00,46.8,45.4,30.07,SSE,158,5.7,12.3,95,0.00,,,0.00,WUHU216HW,2013-03-13 06:44:00,
2013-03-12 23:49:00,46.8,45.4,30.07,South,171,14.0,17.6,95,0.00,,,0.00,WUHU216HW,2013-03-13 06:49:00,
2013-03-12 23:54:00,46.8,45.4,30.08,South,180,12.0,17.6,95,0.00,,,0.00,WUHU216HW,2013-03-13 06:54:00,
2013-03-12 23:59:00,46.8,45.4,30.08,SE,135,11.9,14.5,95,0.00,,,0.00,WUHU216HW,2013-03-13 06:59:00,